松山國際航空站 - 塔臺

METAR RCSS 140300Z VRB03KT 9999 FEW020 BKN045 36/24 Q1007 NOSIG RMK A2976=

站台狀態:Offline
最後更新:2022-08-14 11:30:02